Terminal Aerodrome Forecast
Issued by NWS Albany, NY

Home | Current Version | Previous Version | Text Only | Print | Product List | Glossary On
Versions: 1 2 3 4 5 6 7 8 9 10 11 12 13 14 15 16 17 18 19
000
FTUS41 KALY 031137
TAFGFL
TAF
KGFL 031137Z 0312/0412 VRB03KT P6SM SCT250
     FM031700 18005KT P6SM SCT120 OVC200
     FM032000 18007KT P6SM VCSH OVC060
     FM032200 19008KT 1SM -SN BR OVC015
     FM040300 19007KT 2SM -FZRAPL BR OVC008
     FM040600 20006KT 3SM BR VCSH OVC015=

USA.gov is the U.S. government's official web portal to all federal, state and local government web resources and services.